createdAt,value
2022-11-05T03:59:11.264Z,0.00
2022-11-05T04:00:11.651Z,0.00
2022-11-05T04:01:15.793Z,0.00
2022-11-05T04:02:10.245Z,0.00
2022-11-05T04:03:11.979Z,0.00
2022-11-05T04:04:11.724Z,0.00
2022-11-05T04:05:15.684Z,0.00
2022-11-05T04:06:13.880Z,0.00
2022-11-05T04:07:11.665Z,0.00
2022-11-05T04:08:14.511Z,0.00
2022-11-05T04:09:11.701Z,0.00
2022-11-05T04:10:11.706Z,0.00
2022-11-05T04:11:11.686Z,0.00
2022-11-05T04:12:11.710Z,0.00
2022-11-05T04:13:12.094Z,0.00
2022-11-05T04:14:11.828Z,0.00
2022-11-05T04:15:11.102Z,0.00
2022-11-05T04:16:11.152Z,0.00
2022-11-05T04:17:11.206Z,0.00
2022-11-05T04:18:11.679Z,0.00
2022-11-05T04:19:11.674Z,0.00
2022-11-05T04:20:13.181Z,0.00
2022-11-05T04:21:11.672Z,0.00
2022-11-05T04:22:11.720Z,0.00
2022-11-05T04:23:11.352Z,0.00
2022-11-05T04:24:11.696Z,0.00
2022-11-05T04:25:11.703Z,0.00
2022-11-05T04:26:11.006Z,0.00
2022-11-05T04:27:11.689Z,0.00
2022-11-05T04:28:11.678Z,0.00
2022-11-05T04:29:11.781Z,0.00
2022-11-05T04:30:14.208Z,0.00
2022-11-05T04:31:10.971Z,0.00
2022-11-05T04:32:11.720Z,0.00
2022-11-05T04:33:13.539Z,0.00
2022-11-05T04:34:10.969Z,0.00
2022-11-05T04:35:10.965Z,0.00
2022-11-05T04:36:11.726Z,0.00
2022-11-05T04:37:11.686Z,0.00
2022-11-05T04:38:10.929Z,0.00
2022-11-05T04:39:11.753Z,0.00
2022-11-05T04:40:11.194Z,0.00
2022-11-05T04:41:11.225Z,0.00
2022-11-05T04:42:09.920Z,0.00
2022-11-05T04:43:15.086Z,0.00
2022-11-05T04:44:09.924Z,0.00
2022-11-05T04:45:11.692Z,0.00
2022-11-05T04:46:11.401Z,0.00
2022-11-05T04:47:10.011Z,0.00
2022-11-05T04:48:09.922Z,0.00
2022-11-05T04:49:09.927Z,0.00
2022-11-05T04:50:09.963Z,0.00
2022-11-05T04:51:11.743Z,0.00
2022-11-05T04:52:09.878Z,0.00
2022-11-05T04:53:12.074Z,0.00
2022-11-05T04:54:10.905Z,0.00
2022-11-05T04:55:12.691Z,0.00
2022-11-05T04:56:12.290Z,0.00
2022-11-05T04:57:09.941Z,0.00
2022-11-05T04:58:11.700Z,0.00
2022-11-05T04:59:10.907Z,0.00
2022-11-05T05:00:11.730Z,0.00
2022-11-05T05:01:11.032Z,0.00
2022-11-05T05:02:11.793Z,0.00
2022-11-05T05:03:12.232Z,0.00
2022-11-05T05:04:11.229Z,0.00
2022-11-05T05:05:11.724Z,0.00
2022-11-05T05:06:10.880Z,0.00
2022-11-05T05:07:11.768Z,0.00
2022-11-05T05:08:11.237Z,0.00
2022-11-05T05:09:11.792Z,0.00
2022-11-05T05:10:11.722Z,0.00
2022-11-05T05:11:10.816Z,0.00
2022-11-05T05:12:11.702Z,0.00
2022-11-05T05:13:12.262Z,0.00
2022-11-05T05:14:10.810Z,0.00
2022-11-05T05:15:11.718Z,0.00
2022-11-05T05:16:11.741Z,0.00
2022-11-05T05:17:10.790Z,0.00
2022-11-05T05:18:11.242Z,0.00
2022-11-05T05:19:11.234Z,0.00
2022-11-05T05:20:11.741Z,0.00
2022-11-05T05:21:11.721Z,0.00
2022-11-05T05:22:10.783Z,0.00
2022-11-05T05:23:12.156Z,0.00
2022-11-05T05:24:11.230Z,0.00
2022-11-05T05:25:10.769Z,0.00
2022-11-05T05:26:11.727Z,0.00
2022-11-05T05:27:10.753Z,0.00
2022-11-05T05:28:11.734Z,0.00
2022-11-05T05:29:11.838Z,0.00
2022-11-05T05:30:10.777Z,0.00
2022-11-05T05:31:11.725Z,0.00
2022-11-05T05:32:11.744Z,0.00
2022-11-05T05:33:12.027Z,0.00
2022-11-05T05:34:11.266Z,0.00
2022-11-05T05:35:10.745Z,0.00
2022-11-05T05:36:11.690Z,0.00
2022-11-05T05:37:11.248Z,0.00
2022-11-05T05:38:11.233Z,0.00
2022-11-05T05:39:11.338Z,0.00
2022-11-05T05:40:11.235Z,0.00
2022-11-05T05:41:11.241Z,0.00
2022-11-05T05:42:11.234Z,0.00
2022-11-05T05:43:11.599Z,0.00
2022-11-05T05:44:11.322Z,0.00
2022-11-05T05:45:10.875Z,0.00
2022-11-05T05:46:09.706Z,0.00
2022-11-05T05:47:09.711Z,0.00
2022-11-05T05:48:09.689Z,0.00
2022-11-05T05:49:12.499Z,0.00
2022-11-05T05:50:11.262Z,0.00
2022-11-05T05:51:11.241Z,0.00
2022-11-05T05:52:11.257Z,0.00
2022-11-05T05:53:11.491Z,0.00
2022-11-05T05:54:11.259Z,0.00
2022-11-05T05:55:10.693Z,0.00
2022-11-05T05:56:12.221Z,0.00
2022-11-05T05:57:11.241Z,0.00
2022-11-05T05:58:09.732Z,0.00
2022-11-05T05:59:11.277Z,0.00
2022-11-05T06:00:12.324Z,0.00
2022-11-05T06:01:17.298Z,0.00
2022-11-05T06:02:09.946Z,0.00
2022-11-05T06:03:11.720Z,0.00
2022-11-05T06:04:11.290Z,0.00
2022-11-05T06:05:09.639Z,0.00
2022-11-05T06:06:09.633Z,0.00
2022-11-05T06:07:11.277Z,0.00
2022-11-05T06:08:09.788Z,0.00
2022-11-05T06:09:09.616Z,0.00
2022-11-05T06:10:09.611Z,0.00
2022-11-05T06:11:10.325Z,0.00
2022-11-05T06:12:10.816Z,0.00
2022-11-05T06:13:11.734Z,0.00
2022-11-05T06:14:09.631Z,0.00
2022-11-05T06:15:10.787Z,0.00
2022-11-05T06:16:13.333Z,0.00
2022-11-05T06:17:09.718Z,0.00
2022-11-05T06:18:11.835Z,0.00
2022-11-05T06:19:09.600Z,0.00
2022-11-05T06:20:09.917Z,0.00
2022-11-05T06:21:10.586Z,0.00
2022-11-05T06:22:09.596Z,0.00
2022-11-05T06:23:12.843Z,0.00
2022-11-05T06:24:10.554Z,0.00
2022-11-05T06:25:11.299Z,0.00
2022-11-05T06:26:10.786Z,0.00
2022-11-05T06:27:09.554Z,0.00
2022-11-05T06:28:11.294Z,0.00
2022-11-05T06:29:10.772Z,0.00
2022-11-05T06:30:11.300Z,0.00
2022-11-05T06:31:10.614Z,0.00
2022-11-05T06:32:11.353Z,0.00
2022-11-05T06:33:11.565Z,0.00
2022-11-05T06:34:11.355Z,0.00
2022-11-05T06:35:11.367Z,0.00
2022-11-05T06:36:10.788Z,0.00
2022-11-05T06:37:11.307Z,0.00
2022-11-05T06:38:09.518Z,5.63
2022-11-05T06:39:11.327Z,5.63
2022-11-05T06:40:11.401Z,5.63
2022-11-05T06:41:11.285Z,5.63
2022-11-05T06:42:18.456Z,5.63
2022-11-05T06:43:11.645Z,5.63
2022-11-05T06:44:11.348Z,5.63
2022-11-05T06:45:10.496Z,5.63
2022-11-05T06:46:10.557Z,5.63
2022-11-05T06:47:11.341Z,5.63
2022-11-05T06:48:10.828Z,5.63
2022-11-05T06:49:11.333Z,5.63
2022-11-05T06:50:09.550Z,5.63
2022-11-05T06:51:10.486Z,5.63
2022-11-05T06:52:10.472Z,11.25
2022-11-05T06:53:11.231Z,11.25
2022-11-05T06:54:11.419Z,11.25
2022-11-05T06:55:11.467Z,11.25
2022-11-05T06:56:11.436Z,11.25
2022-11-05T06:57:09.840Z,11.25
2022-11-05T06:58:11.388Z,11.25
2022-11-05T06:59:11.347Z,11.25
2022-11-05T07:00:10.444Z,11.25
2022-11-05T07:01:11.491Z,11.25
2022-11-05T07:02:09.535Z,11.25
2022-11-05T07:03:11.624Z,11.25
2022-11-05T07:04:11.358Z,11.25
2022-11-05T07:05:11.317Z,11.25
2022-11-05T07:06:11.297Z,16.88
2022-11-05T07:07:11.310Z,16.88
2022-11-05T07:08:11.356Z,16.88
2022-11-05T07:09:11.378Z,16.88
2022-11-05T07:10:11.319Z,16.88
2022-11-05T07:11:11.375Z,16.88
2022-11-05T07:12:11.302Z,16.88
2022-11-05T07:13:11.781Z,16.88
2022-11-05T07:14:11.354Z,16.88
2022-11-05T07:15:09.388Z,16.88
2022-11-05T07:16:09.365Z,16.88
2022-11-05T07:17:09.392Z,16.88
2022-11-05T07:18:09.417Z,16.88
2022-11-05T07:19:11.333Z,16.88
2022-11-05T07:20:10.827Z,16.88
2022-11-05T07:21:09.359Z,22.50
2022-11-05T07:22:09.402Z,22.50
2022-11-05T07:23:09.706Z,22.50
2022-11-05T07:24:09.351Z,22.50
2022-11-05T07:25:11.347Z,22.50
2022-11-05T07:26:11.316Z,22.50
2022-11-05T07:27:10.872Z,22.50
2022-11-05T07:28:10.818Z,22.50
2022-11-05T07:29:10.821Z,22.50
2022-11-05T07:30:10.828Z,22.50
2022-11-05T07:31:10.819Z,22.50
2022-11-05T07:32:10.844Z,22.50
2022-11-05T07:33:11.126Z,22.50
2022-11-05T07:34:09.337Z,22.50
2022-11-05T07:35:10.830Z,28.13
2022-11-05T07:36:10.860Z,28.13
2022-11-05T07:37:09.292Z,28.13
2022-11-05T07:38:10.877Z,28.13
2022-11-05T07:39:09.338Z,33.75
2022-11-05T07:40:09.279Z,33.75
2022-11-05T07:41:09.306Z,39.38
2022-11-05T07:42:09.287Z,39.38
2022-11-05T07:43:11.164Z,45.00
2022-11-05T07:44:09.276Z,50.63
2022-11-05T07:45:10.786Z,50.63
2022-11-05T07:46:13.668Z,50.63
2022-11-05T07:47:09.258Z,50.63
2022-11-05T07:48:10.866Z,50.63
2022-11-05T07:49:09.342Z,50.63
2022-11-05T07:50:09.246Z,56.25
2022-11-05T07:51:10.853Z,56.25
2022-11-05T07:52:09.244Z,56.25
2022-11-05T07:53:09.597Z,56.25
2022-11-05T07:54:09.319Z,56.25
2022-11-05T07:55:09.327Z,56.25
2022-11-05T07:56:10.876Z,56.25
2022-11-05T07:57:09.238Z,56.25
2022-11-05T07:58:11.022Z,56.25
2022-11-05T07:59:09.220Z,56.25
2022-11-05T08:00:10.875Z,56.25
2022-11-05T08:01:09.381Z,56.25
2022-11-05T08:02:10.624Z,56.25
2022-11-05T08:03:11.354Z,56.25
2022-11-05T08:04:09.223Z,56.25
2022-11-05T08:05:10.916Z,61.88
2022-11-05T08:06:10.360Z,61.88
2022-11-05T08:07:10.850Z,61.88
2022-11-05T08:08:10.877Z,61.88
2022-11-05T08:09:10.912Z,61.88
2022-11-05T08:10:10.860Z,61.88
2022-11-05T08:11:10.880Z,61.88
2022-11-05T08:12:10.891Z,61.88
2022-11-05T08:13:11.648Z,61.88
2022-11-05T08:14:10.962Z,61.88
2022-11-05T08:15:10.195Z,61.88
2022-11-05T08:16:11.027Z,61.88
2022-11-05T08:17:09.192Z,61.88
2022-11-05T08:18:09.222Z,61.88
2022-11-05T08:19:09.326Z,61.88
2022-11-05T08:20:09.183Z,61.88
2022-11-05T08:21:10.883Z,67.50
2022-11-05T08:22:11.184Z,67.50
2022-11-05T08:23:09.551Z,67.50
2022-11-05T08:24:11.043Z,67.50
2022-11-05T08:25:09.190Z,67.50
2022-11-05T08:26:10.885Z,67.50
2022-11-05T08:27:09.176Z,67.50
2022-11-05T08:28:10.912Z,67.50
2022-11-05T08:29:10.879Z,67.50
2022-11-05T08:30:10.870Z,73.13
2022-11-05T08:31:10.897Z,73.13
2022-11-05T08:32:09.304Z,73.13
2022-11-05T08:33:11.335Z,73.13
2022-11-05T08:34:10.893Z,73.13
2022-11-05T08:35:10.885Z,73.13
2022-11-05T08:36:10.884Z,73.13
2022-11-05T08:37:10.902Z,73.13
2022-11-05T08:38:10.888Z,73.13
2022-11-05T08:39:16.715Z,73.13
2022-11-05T08:40:10.414Z,78.75
2022-11-05T08:41:10.881Z,78.75
2022-11-05T08:42:09.105Z,78.75
2022-11-05T08:43:09.676Z,78.75
2022-11-05T08:44:09.252Z,78.75
2022-11-05T08:45:10.423Z,78.75
2022-11-05T08:46:09.107Z,78.75
2022-11-05T08:47:09.162Z,78.75
2022-11-05T08:48:09.246Z,78.75
2022-11-05T08:49:09.299Z,78.75
2022-11-05T08:50:10.119Z,78.75
2022-11-05T08:51:10.921Z,78.75
2022-11-05T08:52:09.303Z,78.75
2022-11-05T08:53:09.522Z,78.75
2022-11-05T08:54:11.405Z,84.38
2022-11-05T08:55:09.163Z,84.38
2022-11-05T08:56:09.134Z,84.38
2022-11-05T08:57:09.384Z,84.38
2022-11-05T08:58:09.097Z,84.38
2022-11-05T08:59:10.921Z,84.38
2022-11-05T09:00:09.916Z,84.38
2022-11-05T09:01:10.994Z,84.38
2022-11-05T09:02:11.110Z,84.38
2022-11-05T09:03:11.336Z,84.38
2022-11-05T09:04:09.064Z,84.38
2022-11-05T09:05:10.906Z,84.38
2022-11-05T09:06:10.958Z,84.38
2022-11-05T09:07:09.091Z,84.38
2022-11-05T09:08:10.903Z,84.38
2022-11-05T09:09:11.000Z,84.38
2022-11-05T09:10:10.934Z,84.38
2022-11-05T09:11:11.009Z,90.00
2022-11-05T09:12:12.985Z,84.38
2022-11-05T09:13:17.753Z,90.00
2022-11-05T09:14:10.925Z,90.00
2022-11-05T09:15:10.931Z,90.00
2022-11-05T09:16:10.436Z,90.00
2022-11-05T09:17:10.938Z,90.00
2022-11-05T09:18:10.964Z,90.00
2022-11-05T09:19:09.224Z,90.00
2022-11-05T09:20:11.057Z,90.00
2022-11-05T09:21:11.043Z,90.00
2022-11-05T09:22:10.933Z,90.00
2022-11-05T09:23:09.486Z,95.63
2022-11-05T09:24:09.354Z,95.63
2022-11-05T09:25:09.912Z,95.63
2022-11-05T09:26:09.312Z,95.63
2022-11-05T09:27:11.031Z,95.63
2022-11-05T09:28:14.650Z,95.63
2022-11-05T09:29:14.049Z,95.63
2022-11-05T09:30:09.043Z,95.63
2022-11-05T09:31:10.972Z,95.63
2022-11-05T09:32:10.939Z,95.63
2022-11-05T09:33:09.345Z,95.63
2022-11-05T09:34:11.029Z,95.63
2022-11-05T09:35:09.056Z,101.25
2022-11-05T09:36:10.956Z,95.63
2022-11-05T09:37:11.116Z,101.25
2022-11-05T09:38:09.051Z,101.25
2022-11-05T09:39:10.931Z,101.25
2022-11-05T09:40:10.932Z,101.25
2022-11-05T09:41:10.072Z,101.25
2022-11-05T09:42:10.988Z,101.25
2022-11-05T09:43:11.329Z,101.25
2022-11-05T09:44:10.977Z,101.25
2022-11-05T09:45:10.976Z,101.25
2022-11-05T09:46:10.958Z,106.88
2022-11-05T09:47:10.935Z,106.88
2022-11-05T09:48:11.127Z,106.88
2022-11-05T09:49:10.957Z,106.88
2022-11-05T09:50:10.948Z,106.88
2022-11-05T09:51:10.968Z,106.88
2022-11-05T09:52:11.074Z,106.88
2022-11-05T09:53:11.309Z,106.88
2022-11-05T09:54:10.972Z,106.88
2022-11-05T09:55:10.074Z,106.88
2022-11-05T09:56:10.992Z,112.50
2022-11-05T09:57:11.107Z,112.50
2022-11-05T09:58:10.971Z,112.50
2022-11-05T09:59:09.001Z,112.50
2022-11-05T10:00:09.018Z,112.50
2022-11-05T10:01:09.109Z,112.50
2022-11-05T10:02:10.581Z,106.88
2022-11-05T10:13:21.310Z,112.50
2022-11-05T10:14:21.146Z,106.88
2022-11-05T10:15:19.680Z,106.88
2022-11-05T10:16:21.144Z,95.63
2022-11-05T10:17:19.678Z,101.25
2022-11-05T10:18:21.158Z,106.88
2022-11-05T10:19:19.668Z,101.25
2022-11-05T10:20:19.644Z,112.50
2022-11-05T10:21:37.568Z,112.50
2022-11-05T10:22:19.639Z,112.50
2022-11-05T10:23:19.596Z,112.50
2022-11-05T10:24:19.624Z,112.50
2022-11-05T10:25:21.270Z,101.25
2022-11-05T10:26:20.138Z,106.88
2022-11-05T10:27:19.599Z,101.25
2022-11-05T10:28:19.592Z,106.88
2022-11-05T10:29:19.619Z,118.13
2022-11-05T10:30:21.132Z,118.13
2022-11-05T10:31:23.177Z,112.50
2022-11-05T10:32:22.207Z,101.25
2022-11-05T10:33:19.658Z,101.25
2022-11-05T10:34:21.135Z,95.63
2022-11-05T10:35:19.645Z,106.88
2022-11-05T10:36:21.150Z,101.25
2022-11-05T10:37:19.658Z,101.25
2022-11-05T10:38:22.326Z,101.25
2022-11-05T10:39:21.152Z,101.25
2022-11-05T10:40:20.697Z,101.25
2022-11-05T10:41:21.146Z,101.25
2022-11-05T10:42:21.151Z,101.25
2022-11-05T10:43:21.225Z,101.25
2022-11-05T10:44:21.213Z,101.25
2022-11-05T10:45:21.293Z,95.63
2022-11-05T10:46:27.158Z,95.63
2022-11-05T10:47:19.787Z,95.63
2022-11-05T10:48:21.263Z,101.25
2022-11-05T10:49:21.167Z,101.25
2022-11-05T10:50:21.184Z,118.13
2022-11-05T10:51:21.179Z,129.38
2022-11-05T10:52:21.479Z,123.75
2022-11-05T10:53:21.144Z,135.00
2022-11-05T10:54:21.163Z,135.00
2022-11-05T10:55:20.665Z,123.75
2022-11-05T10:56:19.641Z,101.25
2022-11-05T10:57:19.612Z,106.88
2022-11-05T10:58:19.589Z,118.13
2022-11-05T10:59:19.673Z,101.25
2022-11-05T11:00:21.173Z,101.25
2022-11-05T11:01:21.347Z,101.25
2022-11-05T11:02:21.355Z,118.13
2022-11-05T11:03:21.156Z,112.50
2022-11-05T11:04:21.186Z,118.13
2022-11-05T11:05:21.329Z,112.50
2022-11-05T11:06:21.186Z,118.13
2022-11-05T11:07:21.219Z,135.00
2022-11-05T11:08:21.158Z,123.75
2022-11-05T11:09:22.165Z,129.38
2022-11-05T11:10:21.179Z,129.38
2022-11-05T11:11:21.300Z,129.38
2022-11-05T11:12:21.184Z,112.50
2022-11-05T11:13:21.196Z,118.13
2022-11-05T11:14:19.890Z,135.00
2022-11-05T11:15:19.835Z,140.63
2022-11-05T11:16:21.242Z,151.88
2022-11-05T11:17:19.598Z,146.25
2022-11-05T11:18:19.583Z,140.63
2022-11-05T11:19:21.293Z,140.63
2022-11-05T11:20:19.646Z,140.63
2022-11-05T11:21:19.600Z,135.00
2022-11-05T11:22:19.708Z,135.00
2022-11-05T11:23:22.131Z,140.63
2022-11-05T11:24:19.633Z,146.25
2022-11-05T11:25:19.673Z,151.88
2022-11-05T11:26:19.604Z,202.50
2022-11-05T11:27:19.674Z,208.13
2022-11-05T11:28:21.301Z,213.75
2022-11-05T11:29:19.578Z,213.75
2022-11-05T11:30:21.206Z,196.88
2022-11-05T11:31:19.597Z,219.38
2022-11-05T11:32:20.595Z,213.75
2022-11-05T11:33:21.342Z,213.75
2022-11-05T11:34:20.184Z,225.00
2022-11-05T11:35:21.224Z,236.25
2022-11-05T11:36:21.401Z,196.88
2022-11-05T11:37:21.220Z,151.88
2022-11-05T11:38:21.205Z,151.88
2022-11-05T11:39:21.232Z,168.75
2022-11-05T11:40:21.522Z,174.38
2022-11-05T11:41:21.260Z,208.13
2022-11-05T11:42:21.245Z,208.13
2022-11-05T11:43:21.237Z,213.75
2022-11-05T11:44:21.274Z,230.63
2022-11-05T11:45:21.207Z,236.25
2022-11-05T11:46:21.220Z,241.88
2022-11-05T11:47:21.222Z,270.00
2022-11-05T11:48:21.262Z,264.38
2022-11-05T11:49:21.360Z,275.63
2022-11-05T11:50:21.217Z,292.50
2022-11-05T11:51:21.226Z,309.38
2022-11-05T11:52:21.253Z,331.88
2022-11-05T11:53:21.206Z,337.50
2022-11-05T11:54:20.868Z,348.75
2022-11-05T11:55:22.862Z,343.13
2022-11-05T11:56:22.277Z,354.38
2022-11-05T11:57:21.319Z,376.88
2022-11-05T11:58:21.294Z,371.25
2022-11-05T11:59:27.266Z,388.13
2022-11-05T12:00:21.212Z,416.25
2022-11-05T12:01:21.309Z,438.75
2022-11-05T12:02:19.871Z,427.50
2022-11-05T12:03:20.037Z,416.25
2022-11-05T12:04:19.751Z,427.50
2022-11-05T12:05:19.636Z,703.13
2022-11-05T12:06:20.263Z,720.00
2022-11-05T12:07:19.624Z,725.63
2022-11-05T12:08:21.237Z,1091.25
2022-11-05T12:09:19.610Z,1462.50
2022-11-05T12:10:21.235Z,1445.63
2022-11-05T12:11:20.613Z,1350.00
2022-11-05T12:12:21.383Z,1428.75
2022-11-05T12:13:19.737Z,1389.38
2022-11-05T12:14:21.285Z,1361.25
2022-11-05T12:15:19.609Z,1355.63
2022-11-05T12:16:21.238Z,1423.13
2022-11-05T12:17:21.558Z,1411.88
2022-11-05T12:18:19.633Z,1485.00
2022-11-05T12:19:21.276Z,1479.38
2022-11-05T12:20:21.345Z,1451.25
2022-11-05T12:21:40.717Z,1513.13
2022-11-05T12:22:21.245Z,1524.38
2022-11-05T12:23:20.676Z,1569.38
2022-11-05T12:24:25.272Z,258.75
2022-11-05T12:25:19.669Z,1490.63
2022-11-05T12:26:19.814Z,1338.75
2022-11-05T12:27:20.896Z,1535.63
2022-11-05T12:28:21.272Z,1535.63
2022-11-05T12:29:19.782Z,1552.50
2022-11-05T12:30:19.710Z,1558.13
2022-11-05T12:31:19.706Z,1530.00
2022-11-05T12:32:20.852Z,1569.38
2022-11-05T12:33:21.325Z,1625.63
2022-11-05T12:34:20.760Z,1569.38
2022-11-05T12:35:21.286Z,1580.63
2022-11-05T12:36:19.664Z,1541.25
2022-11-05T12:37:20.303Z,1423.13
2022-11-05T12:38:20.727Z,1361.25
2022-11-05T12:39:21.275Z,961.88
2022-11-05T12:40:21.350Z,1164.38
2022-11-05T12:41:20.720Z,1046.25
2022-11-05T12:42:21.283Z,1591.88
2022-11-05T12:43:21.322Z,1203.75
2022-11-05T12:44:19.780Z,776.25
2022-11-05T12:45:20.859Z,399.38
2022-11-05T12:46:21.299Z,691.88
2022-11-05T12:47:21.276Z,736.88
2022-11-05T12:48:27.547Z,613.13
2022-11-05T12:49:19.796Z,725.63
2022-11-05T12:50:21.245Z,399.38
2022-11-05T12:51:20.771Z,483.75
2022-11-05T12:52:20.314Z,528.75
2022-11-05T12:53:20.809Z,399.38
2022-11-05T12:54:21.226Z,213.75
2022-11-05T12:55:21.739Z,174.38
2022-11-05T12:56:20.795Z,225.00
2022-11-05T12:57:21.229Z,202.50
2022-11-05T12:58:20.788Z,180.00
2022-11-05T12:59:19.791Z,202.50
2022-11-05T13:00:19.786Z,219.38
2022-11-05T13:01:20.964Z,315.00
2022-11-05T13:02:19.850Z,258.75
2022-11-05T13:03:20.840Z,624.38
2022-11-05T13:04:21.283Z,489.38
2022-11-05T13:05:19.769Z,551.25
2022-11-05T13:06:21.298Z,348.75
2022-11-05T13:07:21.314Z,309.38
2022-11-05T13:08:21.502Z,258.75
2022-11-05T13:09:27.602Z,669.38
2022-11-05T13:10:21.406Z,382.50
2022-11-05T13:11:21.583Z,1395.00
2022-11-05T13:12:20.885Z,1541.25
2022-11-05T13:13:21.347Z,1485.00
2022-11-05T13:14:21.301Z,1440.00
2022-11-05T13:15:21.360Z,1355.63
2022-11-05T13:16:21.346Z,1164.38
2022-11-05T13:17:21.331Z,1321.88
2022-11-05T13:18:21.377Z,843.75
2022-11-05T13:19:21.402Z,298.13
2022-11-05T13:20:20.960Z,466.88
2022-11-05T13:21:21.304Z,247.50
2022-11-05T13:22:21.450Z,225.00
2022-11-05T13:23:21.335Z,185.63
2022-11-05T13:24:21.353Z,168.75
2022-11-05T13:25:21.422Z,225.00
2022-11-05T13:26:20.810Z,208.13
2022-11-05T13:27:19.812Z,236.25
2022-11-05T13:28:21.413Z,495.00
2022-11-05T13:29:21.463Z,562.50
2022-11-05T13:30:20.932Z,556.88
2022-11-05T13:31:19.835Z,596.25
2022-11-05T13:32:21.324Z,579.38
2022-11-05T13:33:19.827Z,596.25
2022-11-05T13:34:21.330Z,742.50
2022-11-05T13:35:19.819Z,450.00
2022-11-05T13:36:20.043Z,360.00
2022-11-05T13:37:19.869Z,365.63
2022-11-05T13:38:20.895Z,433.13
2022-11-05T13:39:20.883Z,365.63
2022-11-05T13:40:20.887Z,427.50
2022-11-05T13:41:20.998Z,410.63
2022-11-05T13:42:20.874Z,601.88
2022-11-05T13:43:21.366Z,253.13
2022-11-05T13:44:21.362Z,230.63
2022-11-05T13:45:21.361Z,213.75
2022-11-05T13:46:21.420Z,185.63
2022-11-05T13:47:21.403Z,168.75
2022-11-05T13:48:20.828Z,163.13
2022-11-05T13:49:21.353Z,157.50
2022-11-05T13:50:22.832Z,146.25
2022-11-05T13:51:20.858Z,140.63
2022-11-05T13:52:21.588Z,135.00
2022-11-05T13:53:20.875Z,123.75
2022-11-05T13:54:21.036Z,112.50
2022-11-05T13:55:22.854Z,101.25
2022-11-05T13:56:19.859Z,90.00
2022-11-05T13:57:21.372Z,78.75
2022-11-05T13:58:19.911Z,73.13
2022-11-05T13:59:21.374Z,73.13
2022-11-05T14:00:20.895Z,67.50
2022-11-05T14:01:20.965Z,61.88
2022-11-05T14:02:21.022Z,56.25
2022-11-05T14:03:20.859Z,56.25
2022-11-05T14:04:22.871Z,50.63
2022-11-05T14:05:20.852Z,45.00
2022-11-05T14:06:20.834Z,45.00
2022-11-05T14:07:21.456Z,45.00
2022-11-05T14:08:19.839Z,45.00
2022-11-05T14:09:19.864Z,45.00
2022-11-05T14:10:21.421Z,45.00
2022-11-05T14:11:22.078Z,50.63
2022-11-05T14:12:21.609Z,50.63
2022-11-05T14:13:20.871Z,50.63
2022-11-05T14:14:21.438Z,50.63
2022-11-05T14:15:21.443Z,56.25
2022-11-05T14:16:21.183Z,56.25
2022-11-05T14:17:21.469Z,56.25
2022-11-05T14:18:20.902Z,56.25
2022-11-05T14:19:21.180Z,56.25
2022-11-05T14:20:21.384Z,61.88
2022-11-05T14:21:20.891Z,67.50
2022-11-05T14:22:21.379Z,78.75
2022-11-05T14:23:21.508Z,67.50
2022-11-05T14:24:21.366Z,61.88
2022-11-05T14:25:20.871Z,56.25
2022-11-05T14:26:21.406Z,56.25
2022-11-05T14:27:20.045Z,50.63
2022-11-05T14:28:19.827Z,50.63
2022-11-05T14:29:19.942Z,45.00
2022-11-05T14:30:21.388Z,45.00
2022-11-05T14:31:20.384Z,45.00
2022-11-05T14:32:21.392Z,39.38
2022-11-05T14:33:19.968Z,39.38
2022-11-05T14:34:19.834Z,39.38
2022-11-05T14:35:19.817Z,39.38
2022-11-05T14:36:19.827Z,39.38
2022-11-05T14:37:21.426Z,45.00
2022-11-05T14:38:19.805Z,56.25
2022-11-05T14:39:19.849Z,67.50
2022-11-05T14:40:19.793Z,78.75
2022-11-05T14:41:21.455Z,73.13
2022-11-05T14:42:21.411Z,73.13
2022-11-05T14:43:21.391Z,61.88
2022-11-05T14:44:21.389Z,56.25
2022-11-05T14:45:21.411Z,50.63
2022-11-05T14:46:21.459Z,45.00
2022-11-05T14:47:21.418Z,45.00
2022-11-05T14:48:21.426Z,39.38
2022-11-05T14:49:21.412Z,39.38
2022-11-05T14:50:21.383Z,33.75
2022-11-05T14:51:21.425Z,33.75
2022-11-05T14:52:20.638Z,33.75
2022-11-05T14:53:20.816Z,33.75
2022-11-05T14:54:22.451Z,33.75
2022-11-05T14:55:20.887Z,33.75
2022-11-05T14:56:21.447Z,33.75
2022-11-05T14:57:21.472Z,33.75
2022-11-05T14:58:19.862Z,28.13
2022-11-05T14:59:21.419Z,28.13
2022-11-05T15:00:19.778Z,22.50
2022-11-05T15:01:22.559Z,22.50
2022-11-05T15:02:21.672Z,22.50
2022-11-05T15:03:20.806Z,22.50
2022-11-05T15:04:20.932Z,22.50
2022-11-05T15:05:19.763Z,22.50
2022-11-05T15:06:20.753Z,22.50
2022-11-05T15:07:21.441Z,22.50
2022-11-05T15:08:19.779Z,22.50
2022-11-05T15:09:19.764Z,16.88
2022-11-05T15:10:19.759Z,16.88
2022-11-05T15:11:20.937Z,16.88
2022-11-05T15:12:19.750Z,11.25
2022-11-05T15:13:20.934Z,11.25
2022-11-05T15:14:20.790Z,11.25
2022-11-05T15:15:22.170Z,11.25
2022-11-05T15:16:20.958Z,5.63
2022-11-05T15:17:20.798Z,5.63
2022-11-05T15:18:20.964Z,5.63
2022-11-05T15:19:21.345Z,5.63
2022-11-05T15:20:20.980Z,5.63
2022-11-05T15:21:20.723Z,5.63
2022-11-05T15:22:21.829Z,5.63
2022-11-05T15:23:20.731Z,5.63
2022-11-05T15:24:21.434Z,5.63
2022-11-05T15:25:21.500Z,5.63
2022-11-05T15:26:21.968Z,5.63
2022-11-05T15:27:19.705Z,5.63
2022-11-05T15:28:21.481Z,5.63
2022-11-05T15:29:19.691Z,5.63
2022-11-05T15:30:20.904Z,5.63
2022-11-05T15:31:20.782Z,0.00
2022-11-05T15:32:19.711Z,0.00
2022-11-05T15:33:20.933Z,0.00
2022-11-05T15:34:21.455Z,0.00
2022-11-05T15:35:21.605Z,0.00
2022-11-05T15:36:20.951Z,0.00
2022-11-05T15:37:19.687Z,0.00
2022-11-05T15:38:19.714Z,0.00
2022-11-05T15:39:35.032Z,0.00
2022-11-05T15:40:19.679Z,0.00
2022-11-05T15:41:19.710Z,0.00
2022-11-05T15:42:21.496Z,0.00
2022-11-05T15:43:21.434Z,0.00
2022-11-05T15:44:21.443Z,0.00
2022-11-05T15:45:21.551Z,0.00
2022-11-05T15:46:22.677Z,0.00
2022-11-05T15:47:21.456Z,0.00
2022-11-05T15:48:21.534Z,0.00
2022-11-05T15:49:20.688Z,0.00
2022-11-05T15:50:21.470Z,0.00
2022-11-05T15:51:20.704Z,0.00
2022-11-05T15:52:21.452Z,0.00
2022-11-05T15:53:47.332Z,0.00
2022-11-05T15:54:36.533Z,0.00
2022-11-05T15:55:21.512Z,0.00
2022-11-05T15:56:21.880Z,0.00
2022-11-05T15:57:21.467Z,0.00
2022-11-05T15:58:21.475Z,0.00
2022-11-05T15:59:21.451Z,0.00
2022-11-05T16:00:21.449Z,0.00
2022-11-05T16:01:21.796Z,0.00
2022-11-05T16:12:31.503Z,0.00
2022-11-05T16:13:30.440Z,0.00
2022-11-05T16:14:30.435Z,0.00
2022-11-05T16:15:32.493Z,0.00
2022-11-05T16:16:30.365Z,0.00
2022-11-05T16:17:30.355Z,0.00
2022-11-05T16:18:31.598Z,0.00
2022-11-05T16:19:35.469Z,0.00
2022-11-05T16:20:31.483Z,0.00
2022-11-05T16:21:31.488Z,0.00
2022-11-05T16:22:31.368Z,0.00
2022-11-05T16:23:32.509Z,0.00
2022-11-05T16:24:31.327Z,0.00
2022-11-05T16:25:31.324Z,0.00
2022-11-05T16:27:00.787Z,0.00
2022-11-05T16:27:31.998Z,0.00
2022-11-05T16:28:32.095Z,0.00
2022-11-05T16:29:30.419Z,0.00
2022-11-05T16:30:31.994Z,0.00
2022-11-05T16:31:32.000Z,0.00
2022-11-05T16:32:31.991Z,0.00
2022-11-05T16:33:31.614Z,0.00
2022-11-05T16:34:32.029Z,0.00
2022-11-05T16:35:32.074Z,0.00
2022-11-05T16:36:31.315Z,0.00
2022-11-05T16:37:32.091Z,0.00
2022-11-05T16:38:32.181Z,0.00
2022-11-05T16:39:30.267Z,0.00
2022-11-05T16:40:31.340Z,0.00
2022-11-05T16:41:31.491Z,0.00
2022-11-05T16:42:31.261Z,0.00
2022-11-05T16:43:32.007Z,0.00
2022-11-05T16:44:31.277Z,0.00
2022-11-05T16:45:31.253Z,0.00
2022-11-05T16:46:32.557Z,0.00
2022-11-05T16:47:30.273Z,0.00
2022-11-05T16:48:31.533Z,0.00
2022-11-05T16:49:31.991Z,0.00
2022-11-05T16:50:31.505Z,0.00
2022-11-05T16:51:32.038Z,0.00
2022-11-05T16:52:32.002Z,0.00
2022-11-05T16:53:32.073Z,0.00
2022-11-05T16:54:32.038Z,0.00
2022-11-05T16:55:32.242Z,0.00
2022-11-05T16:56:32.042Z,0.00
2022-11-05T16:57:32.042Z,0.00
2022-11-05T16:58:31.549Z,0.00
2022-11-05T16:59:31.995Z,0.00
2022-11-05T17:00:32.056Z,0.00
2022-11-05T17:01:32.128Z,0.00
2022-11-05T17:02:31.368Z,0.00
2022-11-05T17:03:32.254Z,0.00
2022-11-05T17:04:31.191Z,0.00
2022-11-05T17:05:31.207Z,0.00
2022-11-05T17:06:32.126Z,0.00
2022-11-05T17:07:35.792Z,0.00
2022-11-05T17:08:30.254Z,0.00
2022-11-05T17:09:32.068Z,0.00
2022-11-05T17:10:32.076Z,0.00
2022-11-05T17:11:32.055Z,0.00